createdAt,value
2023-01-23T00:02:29.061Z,6.00
2023-01-23T00:07:30.550Z,5.88
2023-01-23T00:12:31.996Z,6.22
2023-01-23T00:17:33.442Z,6.63
2023-01-23T00:22:34.919Z,6.05
2023-01-23T00:27:36.379Z,6.28
2023-01-23T00:32:37.816Z,6.68
2023-01-23T00:37:39.304Z,6.10
2023-01-23T00:42:40.734Z,5.95
2023-01-23T00:47:42.186Z,5.95
2023-01-23T00:52:43.617Z,6.22
2023-01-23T00:57:44.986Z,6.30
2023-01-23T01:02:46.585Z,6.20
2023-01-23T01:07:48.054Z,6.70
2023-01-23T01:12:49.474Z,5.90
2023-01-23T01:17:53.698Z,6.18
2023-01-23T01:22:56.913Z,6.65
2023-01-23T01:27:58.360Z,6.82
2023-01-23T01:32:59.772Z,6.40
2023-01-23T01:38:01.299Z,6.47
2023-01-23T01:43:05.279Z,7.35
2023-01-23T01:48:06.726Z,7.57
2023-01-23T01:53:08.170Z,6.78
2023-01-23T01:58:09.818Z,6.28
2023-01-23T02:03:11.338Z,6.35
2023-01-23T02:08:19.123Z,6.70
2023-01-23T02:13:20.840Z,6.10
2023-01-23T02:18:22.440Z,6.45
2023-01-23T02:23:23.889Z,7.00
2023-01-23T02:28:35.804Z,7.00
2023-01-23T02:33:37.212Z,7.45
2023-01-23T02:38:48.832Z,7.38
2023-01-23T02:43:50.585Z,7.75
2023-01-23T02:48:52.205Z,7.68
2023-01-23T02:53:53.723Z,8.07
2023-01-23T02:59:13.700Z,7.78
2023-01-23T03:04:15.141Z,7.10
2023-01-23T03:09:17.224Z,7.63
2023-01-23T03:14:19.898Z,7.43
2023-01-23T03:19:23.292Z,7.22
2023-01-23T03:24:24.735Z,7.20
2023-01-23T03:29:45.010Z,7.72
2023-01-23T03:34:46.488Z,6.88
2023-01-23T03:40:06.619Z,7.38
2023-01-23T03:45:08.277Z,8.07
2023-01-23T03:50:09.940Z,7.55
2023-01-23T03:55:11.378Z,7.55
2023-01-23T04:00:13.860Z,8.73
2023-01-23T04:05:15.356Z,8.35
2023-01-23T04:10:16.954Z,8.23
2023-01-23T04:15:18.517Z,8.52
2023-01-23T04:20:20.171Z,7.88
2023-01-23T04:25:21.846Z,8.30
2023-01-23T04:30:23.292Z,8.40
2023-01-23T04:35:24.819Z,9.18
2023-01-23T04:40:26.269Z,8.93
2023-01-23T04:45:27.711Z,9.40
2023-01-23T04:50:29.164Z,9.20
2023-01-23T04:55:30.601Z,9.18
2023-01-23T05:00:32.107Z,9.30
2023-01-23T05:05:33.579Z,9.52
2023-01-23T05:10:35.046Z,8.23
2023-01-23T05:15:36.506Z,8.63
2023-01-23T05:20:38.175Z,8.52
2023-01-23T05:25:39.665Z,8.63
2023-01-23T05:30:42.303Z,9.20
2023-01-23T05:35:43.886Z,9.20
2023-01-23T05:40:45.377Z,9.10
2023-01-23T05:45:46.875Z,9.20
2023-01-23T05:50:48.342Z,8.27
2023-01-23T05:55:49.929Z,8.68
2023-01-23T06:00:51.336Z,8.90
2023-01-23T06:05:52.832Z,9.70
2023-01-23T06:10:54.267Z,9.75
2023-01-23T06:15:56.108Z,10.52
2023-01-23T06:20:58.558Z,9.43
2023-01-23T06:26:01.592Z,9.45
2023-01-23T06:31:04.206Z,10.55
2023-01-23T06:36:06.318Z,10.10
2023-01-23T06:41:08.612Z,10.32
2023-01-23T06:46:10.605Z,9.38
2023-01-23T06:51:12.196Z,10.85
2023-01-23T06:56:13.643Z,10.10
2023-01-23T07:01:17.432Z,9.15
2023-01-23T07:06:18.951Z,10.52
2023-01-23T07:11:20.525Z,10.55
2023-01-23T07:16:22.138Z,10.50
2023-01-23T07:21:23.599Z,10.38
2023-01-23T07:26:25.088Z,10.65
2023-01-23T07:31:26.594Z,11.00
2023-01-23T07:36:28.569Z,10.40
2023-01-23T07:41:30.080Z,10.75
2023-01-23T07:46:31.690Z,11.02
2023-01-23T07:51:34.081Z,11.60
2023-01-23T07:56:35.561Z,11.57
2023-01-23T08:01:37.002Z,10.65
2023-01-23T08:06:38.462Z,11.52
2023-01-23T08:11:39.855Z,11.55
2023-01-23T08:16:41.344Z,11.82
2023-01-23T08:21:42.907Z,12.57
2023-01-23T08:26:44.643Z,12.35
2023-01-23T08:31:46.120Z,12.82
2023-01-23T08:36:47.613Z,11.77
2023-01-23T08:41:49.125Z,11.88
2023-01-23T08:46:51.328Z,11.13
2023-01-23T08:51:52.732Z,11.52
2023-01-23T08:56:54.199Z,12.68
2023-01-23T09:01:55.757Z,13.48
2023-01-23T09:06:58.231Z,13.18
2023-01-23T09:11:59.785Z,12.90
2023-01-23T09:17:01.183Z,12.45
2023-01-23T09:22:02.860Z,12.63
2023-01-23T09:27:04.270Z,12.55
2023-01-23T09:32:05.912Z,12.52
2023-01-23T09:37:07.335Z,11.82
2023-01-23T09:42:14.900Z,12.27
2023-01-23T09:47:23.268Z,12.05
2023-01-23T09:52:28.134Z,11.68
2023-01-23T09:57:38.988Z,11.75
2023-01-23T10:02:43.276Z,12.63
2023-01-23T10:07:53.000Z,12.43
2023-01-23T10:12:57.239Z,11.35
2023-01-23T10:18:07.376Z,11.77
2023-01-23T10:23:18.885Z,12.48
2023-01-23T10:28:20.278Z,12.18
2023-01-23T10:33:26.754Z,11.63
2023-01-23T10:38:46.520Z,12.68
2023-01-23T10:43:51.828Z,11.98
2023-01-23T10:48:54.045Z,12.25
2023-01-23T10:54:29.586Z,12.90
2023-01-23T10:59:41.398Z,12.88
2023-01-23T11:04:43.830Z,11.85
2023-01-23T11:09:48.634Z,12.13
2023-01-23T11:14:50.487Z,12.35
2023-01-23T11:19:54.315Z,12.07
2023-01-23T11:24:56.021Z,12.32
2023-01-23T11:30:06.496Z,13.30
2023-01-23T11:35:20.338Z,13.40
2023-01-23T11:40:22.172Z,11.48
2023-01-23T11:45:31.139Z,11.57
2023-01-23T11:50:43.637Z,11.60
2023-01-23T11:56:29.027Z,11.73
2023-01-23T12:01:52.134Z,11.70
2023-01-23T12:07:06.408Z,11.55
2023-01-23T12:12:10.823Z,12.00
2023-01-23T12:17:25.064Z,11.45
2023-01-23T12:22:29.321Z,11.80
2023-01-23T12:27:49.722Z,11.90
2023-01-23T12:33:03.164Z,10.30
2023-01-23T12:38:20.172Z,10.38
2023-01-23T12:43:38.294Z,10.73
2023-01-23T12:49:03.002Z,10.70
2023-01-23T12:54:06.807Z,10.52
2023-01-23T12:59:17.984Z,10.90
2023-01-23T13:04:26.125Z,11.10
2023-01-23T13:09:46.539Z,10.48
2023-01-23T13:15:13.962Z,11.20
2023-01-23T13:20:41.477Z,10.48
2023-01-23T13:25:42.942Z,11.25
2023-01-23T13:30:44.408Z,9.13
2023-01-23T13:35:49.743Z,10.30
2023-01-23T13:41:14.583Z,10.55
2023-01-23T13:46:25.190Z,8.82
2023-01-23T14:23:41.072Z,6.63
2023-01-23T14:28:55.562Z,4.97
2023-01-23T14:34:09.768Z,4.50
2023-01-23T14:39:17.008Z,5.07
2023-01-23T14:44:21.089Z,4.55
2023-01-23T14:49:25.232Z,4.13
2023-01-23T14:54:31.792Z,4.40
2023-01-23T14:59:38.950Z,4.75
2023-01-23T15:04:40.337Z,4.38
2023-01-23T15:09:45.758Z,4.47
2023-01-23T15:14:52.515Z,3.97
2023-01-23T15:19:59.653Z,4.05
2023-01-23T15:25:21.629Z,4.25
2023-01-23T15:30:35.697Z,4.57
2023-01-23T15:35:38.056Z,4.70
2023-01-23T15:40:39.701Z,4.53
2023-01-23T15:45:41.210Z,5.28
2023-01-23T15:50:42.693Z,4.50
2023-01-23T15:55:44.120Z,4.47
2023-01-23T16:00:45.776Z,4.85
2023-01-23T16:05:47.231Z,4.53
2023-01-23T16:10:50.125Z,4.88
2023-01-23T16:15:51.990Z,4.35
2023-01-23T16:20:54.338Z,4.78
2023-01-23T16:25:55.877Z,5.30
2023-01-23T16:30:57.327Z,5.57
2023-01-23T16:35:58.776Z,5.18
2023-01-23T16:41:01.601Z,4.97
2023-01-23T16:46:03.115Z,7.00
2023-01-23T16:51:08.668Z,7.00
2023-01-23T16:56:17.872Z,6.60
2023-01-23T17:01:21.383Z,5.50
2023-01-23T17:06:22.867Z,5.22
2023-01-23T17:11:28.988Z,5.40
2023-01-23T17:16:30.522Z,5.95
2023-01-23T17:21:33.911Z,5.47
2023-01-23T17:26:35.444Z,5.55
2023-01-23T17:31:37.608Z,5.40
2023-01-23T17:36:39.126Z,5.68
2023-01-23T17:41:40.569Z,5.75
2023-01-23T17:46:42.539Z,6.03
2023-01-23T17:51:44.038Z,6.47
2023-01-23T17:56:45.767Z,5.95
2023-01-23T18:01:47.905Z,5.28
2023-01-23T18:06:50.016Z,6.57
2023-01-23T18:11:55.148Z,6.57
2023-01-23T18:16:56.646Z,6.70
2023-01-23T18:21:58.271Z,6.72
2023-01-23T18:26:59.783Z,6.35
2023-01-23T18:32:10.247Z,7.10
2023-01-23T18:37:21.905Z,7.20
2023-01-23T18:42:27.130Z,7.20
2023-01-23T18:47:28.902Z,6.50
2023-01-23T18:52:38.710Z,7.03
2023-01-23T19:02:52.622Z,7.35
2023-01-23T19:07:54.257Z,7.05
2023-01-23T19:13:02.637Z,8.45
2023-01-23T19:18:06.867Z,8.52
2023-01-23T19:23:50.370Z,8.32
2023-01-23T19:28:52.775Z,8.75
2023-01-23T19:33:54.398Z,7.85
2023-01-23T19:39:03.138Z,8.75
2023-01-23T19:44:04.598Z,8.63
2023-01-23T19:49:25.282Z,9.73
2023-01-23T19:54:26.867Z,9.25
2023-01-23T19:59:28.382Z,9.20
2023-01-23T20:04:29.895Z,10.10
2023-01-23T20:09:31.352Z,11.02
2023-01-23T20:14:32.803Z,10.88
2023-01-23T20:19:34.268Z,10.40
2023-01-23T20:24:35.695Z,11.13
2023-01-23T20:29:38.561Z,11.02
2023-01-23T20:34:40.000Z,10.60
2023-01-23T20:39:41.465Z,10.80
2023-01-23T20:44:43.616Z,11.98
2023-01-23T20:49:44.992Z,11.50
2023-01-23T20:54:46.877Z,11.27
2023-01-23T20:59:48.331Z,11.57
2023-01-23T21:04:50.417Z,11.15
2023-01-23T21:09:51.833Z,11.00
2023-01-23T21:14:53.305Z,12.10
2023-01-23T21:19:54.868Z,10.73
2023-01-23T21:24:56.334Z,11.02
2023-01-23T21:35:16.599Z,11.00
2023-01-23T21:40:18.069Z,12.13
2023-01-23T21:45:19.856Z,11.07
2023-01-23T21:50:21.421Z,11.48
2023-01-23T21:55:23.194Z,11.57
2023-01-23T22:00:43.287Z,11.48
2023-01-23T22:05:44.725Z,13.02
2023-01-23T22:10:46.184Z,11.10
2023-01-23T22:15:47.601Z,12.40
2023-01-23T22:20:53.222Z,12.88
2023-01-23T22:25:58.745Z,12.63
2023-01-23T22:31:13.879Z,12.52
2023-01-23T22:36:17.729Z,13.20
2023-01-23T22:41:19.407Z,13.00
2023-01-23T22:46:21.543Z,13.63
2023-01-23T22:51:26.474Z,13.15
2023-01-23T22:56:28.402Z,13.27
2023-01-23T23:06:45.391Z,13.60
2023-01-23T23:11:50.047Z,12.85
2023-01-23T23:16:51.457Z,13.95
2023-01-23T23:21:52.997Z,14.13
2023-01-23T23:26:54.459Z,14.63
2023-01-23T23:31:55.973Z,14.38
2023-01-23T23:36:57.427Z,14.45
2023-01-23T23:41:59.212Z,14.77
2023-01-23T23:47:00.642Z,16.15
2023-01-23T23:52:02.103Z,14.75
2023-01-23T23:57:03.576Z,14.77
